sensor_id;sensor_type;location;lat;lon;timestamp;pressure;altitude;pressure_sealevel;temperature;humidity
21153;BME280;10734;44.792;20.482;2023-06-14T04:07:59;99697.44;;;17.07;nan
21153;BME280;10734;44.792;20.482;2023-06-14T04:10:29;99672.41;;;17.13;nan
21153;BME280;10734;44.792;20.482;2023-06-14T04:12:57;99675.44;;;17.20;nan
21153;BME280;10734;44.792;20.482;2023-06-14T04:15:25;99683.88;;;17.17;nan
21153;BME280;10734;44.792;20.482;2023-06-14T04:17:55;99691.88;;;17.09;nan
21153;BME280;10734;44.792;20.482;2023-06-14T04:20:25;99699.56;;;17.03;nan
21153;BME280;10734;44.792;20.482;2023-06-14T04:22:52;99686.97;;;17.02;nan
21153;BME280;10734;44.792;20.482;2023-06-14T04:25:25;99695.84;;;17.05;nan
21153;BME280;10734;44.792;20.482;2023-06-14T04:27:53;99681.97;;;17.08;nan
21153;BME280;10734;44.792;20.482;2023-06-14T04:30:21;99684.56;;;17.09;nan
21153;BME280;10734;44.792;20.482;2023-06-14T04:35:23;99693.28;;;17.03;nan
21153;BME280;10734;44.792;20.482;2023-06-14T04:42:50;99689.47;;;17.15;nan
21153;BME280;10734;44.792;20.482;2023-06-14T04:45:18;99700.19;;;17.17;nan
21153;BME280;10734;44.792;20.482;2023-06-14T04:47:49;99712.72;;;17.29;nan
21153;BME280;10734;44.792;20.482;2023-06-14T04:50:17;99702.84;;;17.38;nan
21153;BME280;10734;44.792;20.482;2023-06-14T04:52:46;99693.97;;;17.45;nan
21153;BME280;10734;44.792;20.482;2023-06-14T04:57:46;99702.63;;;17.60;nan
21153;BME280;10734;44.792;20.482;2023-06-14T05:00:16;99725.44;;;17.69;nan
21153;BME280;10734;44.792;20.482;2023-06-14T05:02:44;99724.16;;;17.73;nan
21153;BME280;10734;44.792;20.482;2023-06-14T05:05:11;99702.13;;;17.86;nan
21153;BME280;10734;44.792;20.482;2023-06-14T05:07:38;99728.25;;;17.98;nan
21153;BME280;10734;44.792;20.482;2023-06-14T05:10:09;99716.78;;;18.04;nan
21153;BME280;10734;44.792;20.482;2023-06-14T05:12:37;99705.72;;;18.06;nan
21153;BME280;10734;44.792;20.482;2023-06-14T05:15:05;99722.25;;;18.14;nan
21153;BME280;10734;44.792;20.482;2023-06-14T05:19:59;99707.47;;;18.26;nan
21153;BME280;10734;44.792;20.482;2023-06-14T05:22:27;99714.50;;;18.38;nan
21153;BME280;10734;44.792;20.482;2023-06-14T05:24:54;99723.53;;;18.58;nan
21153;BME280;10734;44.792;20.482;2023-06-14T05:27:22;99716.47;;;18.65;nan
21153;BME280;10734;44.792;20.482;2023-06-14T05:29:51;99717.47;;;18.84;nan
21153;BME280;10734;44.792;20.482;2023-06-14T05:37:18;99709.66;;;19.36;nan
21153;BME280;10734;44.792;20.482;2023-06-14T05:39:46;99703.66;;;19.60;nan
21153;BME280;10734;44.792;20.482;2023-06-14T05:42:14;99702.75;;;19.69;nan
21153;BME280;10734;44.792;20.482;2023-06-14T05:44:42;99705.97;;;19.82;nan
21153;BME280;10734;44.792;20.482;2023-06-14T05:47:11;99706.69;;;20.02;nan
21153;BME280;10734;44.792;20.482;2023-06-14T05:49:41;99714.41;;;20.07;nan
21153;BME280;10734;44.792;20.482;2023-06-14T05:52:09;99711.69;;;20.07;nan
21153;BME280;10734;44.792;20.482;2023-06-14T05:54:36;99708.66;;;20.10;nan
21153;BME280;10734;44.792;20.482;2023-06-14T05:57:05;99719.44;;;20.12;nan
21153;BME280;10734;44.792;20.482;2023-06-14T05:59:34;99710.63;;;20.18;nan
21153;BME280;10734;44.792;20.482;2023-06-14T06:02:02;99710.91;;;20.32;nan
21153;BME280;10734;44.792;20.482;2023-06-14T06:04:29;99722.59;;;20.52;nan
21153;BME280;10734;44.792;20.482;2023-06-14T06:06:57;99734.66;;;20.68;nan
21153;BME280;10734;44.792;20.482;2023-06-14T06:09:25;99722.59;;;20.52;nan
21153;BME280;10734;44.792;20.482;2023-06-14T06:11:52;99723.16;;;20.64;nan
21153;BME280;10734;44.792;20.482;2023-06-14T06:14:21;99727.84;;;20.72;nan
21153;BME280;10734;44.792;20.482;2023-06-14T06:16:49;99726.53;;;20.58;nan
21153;BME280;10734;44.792;20.482;2023-06-14T06:19:17;99724.81;;;20.39;nan
21153;BME280;10734;44.792;20.482;2023-06-14T06:21:45;99740.94;;;20.60;nan
21153;BME280;10734;44.792;20.482;2023-06-14T06:26:46;99750.63;;;20.72;nan
21153;BME280;10734;44.792;20.482;2023-06-14T06:29:13;99734.56;;;20.77;nan
21153;BME280;10734;44.792;20.482;2023-06-14T06:31:42;99732.53;;;20.79;nan
21153;BME280;10734;44.792;20.482;2023-06-14T06:34:10;99748.56;;;20.92;nan
21153;BME280;10734;44.792;20.482;2023-06-14T06:36:37;99740.88;;;20.96;nan
21153;BME280;10734;44.792;20.482;2023-06-14T06:39:05;99733.22;;;21.08;nan
21153;BME280;10734;44.792;20.482;2023-06-14T06:41:38;99743.72;;;20.86;nan
21153;BME280;10734;44.792;20.482;2023-06-14T06:44:06;99732.91;;;20.85;nan
21153;BME280;10734;44.792;20.482;2023-06-14T06:46:35;99733.94;;;21.10;nan
21153;BME280;10734;44.792;20.482;2023-06-14T06:49:03;99741.75;;;21.31;nan
21153;BME280;10734;44.792;20.482;2023-06-14T06:51:30;99751.44;;;21.43;nan
21153;BME280;10734;44.792;20.482;2023-06-14T06:56:27;99752.31;;;21.86;nan
21153;BME280;10734;44.792;20.482;2023-06-14T06:58:56;99757.28;;;21.90;nan
21153;BME280;10734;44.792;20.482;2023-06-14T07:01:22;99756.63;;;21.96;nan
21153;BME280;10734;44.792;20.482;2023-06-14T07:03:52;99745.69;;;22.05;nan
21153;BME280;10734;44.792;20.482;2023-06-14T07:06:20;99750.06;;;21.81;nan
21153;BME280;10734;44.792;20.482;2023-06-14T07:08:49;99755.03;;;21.86;nan
21153;BME280;10734;44.792;20.482;2023-06-14T07:11:16;99758.69;;;22.03;nan
21153;BME280;10734;44.792;20.482;2023-06-14T07:13:43;99758.00;;;22.01;nan
21153;BME280;10734;44.792;20.482;2023-06-14T07:16:10;99777.63;;;21.80;nan
21153;BME280;10734;44.792;20.482;2023-06-14T07:18:37;99771.47;;;21.78;nan
21153;BME280;10734;44.792;20.482;2023-06-14T07:21:04;99774.88;;;21.71;nan
21153;BME280;10734;44.792;20.482;2023-06-14T07:23:32;99765.72;;;21.55;nan
21153;BME280;10734;44.792;20.482;2023-06-14T07:28:28;99768.69;;;21.69;nan
21153;BME280;10734;44.792;20.482;2023-06-14T07:30:55;99777.31;;;21.48;nan
21153;BME280;10734;44.792;20.482;2023-06-14T07:35:49;99767.63;;;21.62;nan
21153;BME280;10734;44.792;20.482;2023-06-14T07:38:17;99770.94;;;21.74;nan
21153;BME280;10734;44.792;20.482;2023-06-14T07:40:43;99770.94;;;21.74;nan
21153;BME280;10734;44.792;20.482;2023-06-14T07:43:13;99775.59;;;21.82;nan
21153;BME280;10734;44.792;20.482;2023-06-14T07:45:40;99769.66;;;21.94;nan
21153;BME280;10734;44.792;20.482;2023-06-14T07:48:16;99790.50;;;22.22;nan
21153;BME280;10734;44.792;20.482;2023-06-14T07:50:43;99772.31;;;22.20;nan
21153;BME280;10734;44.792;20.482;2023-06-14T07:53:10;99775.41;;;22.34;nan
21153;BME280;10734;44.792;20.482;2023-06-14T07:55:52;99771.19;;;22.56;nan
21153;BME280;10734;44.792;20.482;2023-06-14T07:58:19;99774.44;;;22.84;nan
21153;BME280;10734;44.792;20.482;2023-06-14T08:00:46;99773.44;;;22.93;nan
21153;BME280;10734;44.792;20.482;2023-06-14T08:03:13;99780.59;;;23.19;nan
21153;BME280;10734;44.792;20.482;2023-06-14T08:05:42;99785.53;;;23.40;nan
21153;BME280;10734;44.792;20.482;2023-06-14T08:08:09;99786.63;;;23.14;nan
21153;BME280;10734;44.792;20.482;2023-06-14T08:10:37;99785.09;;;23.11;nan
21153;BME280;10734;44.792;20.482;2023-06-14T08:13:03;99780.69;;;23.50;nan
21153;BME280;10734;44.792;20.482;2023-06-14T08:15:30;99781.09;;;23.38;nan
21153;BME280;10734;44.792;20.482;2023-06-14T08:17:58;99789.84;;;23.42;nan
21153;BME280;10734;44.792;20.482;2023-06-14T08:20:26;99798.97;;;23.34;nan
21153;BME280;10734;44.792;20.482;2023-06-14T08:22:54;99798.59;;;23.29;nan
21153;BME280;10734;44.792;20.482;2023-06-14T08:25:23;99799.13;;;23.33;nan
21153;BME280;10734;44.792;20.482;2023-06-14T08:27:51;99796.59;;;22.99;nan
21153;BME280;10734;44.792;20.482;2023-06-14T08:30:18;99799.00;;;23.02;nan
21153;BME280;10734;44.792;20.482;2023-06-14T08:32:45;99797.63;;;22.98;nan
21153;BME280;10734;44.792;20.482;2023-06-14T08:35:15;99801.91;;;23.17;nan
21153;BME280;10734;44.792;20.482;2023-06-14T08:37:43;99798.41;;;23.39;nan
21153;BME280;10734;44.792;20.482;2023-06-14T08:40:21;99801.69;;;23.43;nan
21153;BME280;10734;44.792;20.482;2023-06-14T08:42:54;99804.94;;;23.54;nan
21153;BME280;10734;44.792;20.482;2023-06-14T08:45:22;99804.81;;;23.95;nan
21153;BME280;10734;44.792;20.482;2023-06-14T08:47:53;99797.34;;;24.12;nan
21153;BME280;10734;44.792;20.482;2023-06-14T08:50:24;99794.00;;;24.56;nan
21153;BME280;10734;44.792;20.482;2023-06-14T08:53:00;99798.13;;;24.98;nan
21153;BME280;10734;44.792;20.482;2023-06-14T08:55:30;99795.13;;;25.31;nan
21153;BME280;10734;44.792;20.482;2023-06-14T08:58:02;99795.50;;;25.42;nan
21153;BME280;10734;44.792;20.482;2023-06-14T09:00:31;99792.88;;;25.11;nan
21153;BME280;10734;44.792;20.482;2023-06-14T09:03:00;99797.34;;;25.12;nan
21153;BME280;10734;44.792;20.482;2023-06-14T09:05:28;99788.91;;;24.68;nan
21153;BME280;10734;44.792;20.482;2023-06-14T09:07:55;99791.53;;;24.84;nan
21153;BME280;10734;44.792;20.482;2023-06-14T09:10:25;99795.00;;;25.01;nan
21153;BME280;10734;44.792;20.482;2023-06-14T09:12:55;99796.13;;;25.15;nan
21153;BME280;10734;44.792;20.482;2023-06-14T09:15:22;99789.88;;;25.51;nan
21153;BME280;10734;44.792;20.482;2023-06-14T09:17:49;99791.25;;;25.84;nan
21153;BME280;10734;44.792;20.482;2023-06-14T09:20:16;99789.53;;;25.83;nan
21153;BME280;10734;44.792;20.482;2023-06-14T09:22:46;99781.22;;;25.39;nan
21153;BME280;10734;44.792;20.482;2023-06-14T09:25:13;99792.25;;;25.24;nan
21153;BME280;10734;44.792;20.482;2023-06-14T09:27:59;99784.25;;;25.14;nan
21153;BME280;10734;44.792;20.482;2023-06-14T09:30:28;99787.97;;;25.21;nan
21153;BME280;10734;44.792;20.482;2023-06-14T09:32:55;99785.78;;;25.46;nan
21153;BME280;10734;44.792;20.482;2023-06-14T09:35:25;99783.53;;;25.65;nan
21153;BME280;10734;44.792;20.482;2023-06-14T09:37:54;99777.25;;;25.56;nan
21153;BME280;10734;44.792;20.482;2023-06-14T09:40:22;99780.84;;;25.57;nan
21153;BME280;10734;44.792;20.482;2023-06-14T09:42:49;99778.75;;;25.44;nan
21153;BME280;10734;44.792;20.482;2023-06-14T09:45:17;99771.94;;;25.55;nan
21153;BME280;10734;44.792;20.482;2023-06-14T09:47:51;99774.00;;;25.67;nan
21153;BME280;10734;44.792;20.482;2023-06-14T09:50:31;99774.56;;;25.78;nan
21153;BME280;10734;44.792;20.482;2023-06-14T09:53:03;99776.09;;;25.65;nan
21153;BME280;10734;44.792;20.482;2023-06-14T09:55:36;99783.63;;;25.42;nan
21153;BME280;10734;44.792;20.482;2023-06-14T09:58:06;99779.81;;;25.28;nan
21153;BME280;10734;44.792;20.482;2023-06-14T10:00:35;99782.94;;;25.40;nan
21153;BME280;10734;44.792;20.482;2023-06-14T10:03:17;99781.72;;;25.42;nan
21153;BME280;10734;44.792;20.482;2023-06-14T10:05:50;99786.16;;;25.14;nan
21153;BME280;10734;44.792;20.482;2023-06-14T10:08:25;99782.44;;;25.21;nan
21153;BME280;10734;44.792;20.482;2023-06-14T10:10:55;99778.09;;;25.42;nan
21153;BME280;10734;44.792;20.482;2023-06-14T10:13:23;99771.84;;;25.48;nan
21153;BME280;10734;44.792;20.482;2023-06-14T10:15:57;99774.31;;;25.58;nan
21153;BME280;10734;44.792;20.482;2023-06-14T10:21:22;99778.38;;;25.91;nan
21153;BME280;10734;44.792;20.482;2023-06-14T10:23:53;99778.16;;;26.08;nan
21153;BME280;10734;44.792;20.482;2023-06-14T10:26:24;99772.09;;;25.98;nan
21153;BME280;10734;44.792;20.482;2023-06-14T10:29:00;99775.06;;;26.32;nan
21153;BME280;10734;44.792;20.482;2023-06-14T10:31:48;99769.06;;;26.86;nan
21153;BME280;10734;44.792;20.482;2023-06-14T10:34:27;99773.69;;;26.58;nan
21153;BME280;10734;44.792;20.482;2023-06-14T10:39:32;99761.13;;;27.26;nan
21153;BME280;10734;44.792;20.482;2023-06-14T10:42:01;99744.38;;;27.69;nan
21153;BME280;10734;44.792;20.482;2023-06-14T10:44:32;99748.69;;;27.78;nan
21153;BME280;10734;44.792;20.482;2023-06-14T10:47:00;99737.38;;;27.73;nan
21153;BME280;10734;44.792;20.482;2023-06-14T10:49:44;99749.59;;;27.86;nan
21153;BME280;10734;44.792;20.482;2023-06-14T10:52:17;99741.41;;;28.19;nan
21153;BME280;10734;44.792;20.482;2023-06-14T10:57:23;99738.38;;;27.59;nan
21153;BME280;10734;44.792;20.482;2023-06-14T10:59:50;99741.22;;;28.20;nan
21153;BME280;10734;44.792;20.482;2023-06-14T11:05:08;99741.84;;;28.29;nan
21153;BME280;10734;44.792;20.482;2023-06-14T11:07:48;99734.50;;;27.95;nan
21153;BME280;10734;44.792;20.482;2023-06-14T11:10:38;99734.78;;;27.65;nan
21153;BME280;10734;44.792;20.482;2023-06-14T11:13:09;99744.56;;;28.02;nan
21153;BME280;10734;44.792;20.482;2023-06-14T11:15:37;99739.31;;;28.34;nan
21153;BME280;10734;44.792;20.482;2023-06-14T11:18:06;99736.22;;;28.64;nan
21153;BME280;10734;44.792;20.482;2023-06-14T11:20:35;99729.66;;;29.05;nan
21153;BME280;10734;44.792;20.482;2023-06-14T11:23:03;99728.31;;;28.94;nan
21153;BME280;10734;44.792;20.482;2023-06-14T11:25:32;99722.59;;;28.95;nan
21153;BME280;10734;44.792;20.482;2023-06-14T11:27:59;99717.22;;;28.94;nan
21153;BME280;10734;44.792;20.482;2023-06-14T11:30:26;99712.59;;;29.08;nan
21153;BME280;10734;44.792;20.482;2023-06-14T11:32:54;99726.41;;;29.14;nan
21153;BME280;10734;44.792;20.482;2023-06-14T11:35:25;99726.63;;;29.26;nan
21153;BME280;10734;44.792;20.482;2023-06-14T11:37:54;99731.06;;;29.47;nan
21153;BME280;10734;44.792;20.482;2023-06-14T11:40:25;99719.00;;;29.02;nan
21153;BME280;10734;44.792;20.482;2023-06-14T11:43:01;99715.53;;;28.60;nan
21153;BME280;10734;44.792;20.482;2023-06-14T11:45:30;99725.16;;;28.64;nan
21153;BME280;10734;44.792;20.482;2023-06-14T11:48:00;99716.41;;;29.13;nan
21153;BME280;10734;44.792;20.482;2023-06-14T11:50:28;99717.19;;;29.47;nan
21153;BME280;10734;44.792;20.482;2023-06-14T11:52:59;99712.72;;;29.53;nan
21153;BME280;10734;44.792;20.482;2023-06-14T11:55:40;99715.06;;;29.62;nan
21153;BME280;10734;44.792;20.482;2023-06-14T11:58:07;99709.69;;;29.54;nan
21153;BME280;10734;44.792;20.482;2023-06-14T12:00:36;99705.94;;;29.35;nan
21153;BME280;10734;44.792;20.482;2023-06-14T12:03:03;99706.34;;;29.39;nan
21153;BME280;10734;44.792;20.482;2023-06-14T12:05:30;99705.66;;;29.50;nan
21153;BME280;10734;44.792;20.482;2023-06-14T12:07:59;99706.88;;;29.81;nan
21153;BME280;10734;44.792;20.482;2023-06-14T12:10:27;99696.34;;;29.96;nan
21153;BME280;10734;44.792;20.482;2023-06-14T12:13:00;99703.41;;;29.85;nan
21153;BME280;10734;44.792;20.482;2023-06-14T12:15:31;99692.38;;;30.17;nan
21153;BME280;10734;44.792;20.482;2023-06-14T12:17:59;99690.06;;;30.14;nan
21153;BME280;10734;44.792;20.482;2023-06-14T12:20:30;99694.47;;;30.28;nan
21153;BME280;10734;44.792;20.482;2023-06-14T12:23:03;99695.47;;;30.97;nan
21153;BME280;10734;44.792;20.482;2023-06-14T12:25:33;99689.25;;;31.20;nan
21153;BME280;10734;44.792;20.482;2023-06-14T12:28:08;99685.19;;;30.98;nan
21153;BME280;10734;44.792;20.482;2023-06-14T12:30:37;99682.06;;;31.13;nan
21153;BME280;10734;44.792;20.482;2023-06-14T12:33:04;99675.88;;;31.10;nan
21153;BME280;10734;44.792;20.482;2023-06-14T12:35:32;99667.56;;;30.85;nan
21153;BME280;10734;44.792;20.482;2023-06-14T12:38:00;99672.31;;;30.47;nan
21153;BME280;10734;44.792;20.482;2023-06-14T12:40:26;99660.66;;;30.63;nan
21153;BME280;10734;44.792;20.482;2023-06-14T12:42:54;99647.41;;;30.90;nan
21153;BME280;10734;44.792;20.482;2023-06-14T12:45:21;99654.19;;;30.94;nan
21153;BME280;10734;44.792;20.482;2023-06-14T12:47:48;99648.53;;;31.26;nan
21153;BME280;10734;44.792;20.482;2023-06-14T12:50:15;99652.19;;;31.63;nan
21153;BME280;10734;44.792;20.482;2023-06-14T12:52:42;99643.81;;;31.26;nan
21153;BME280;10734;44.792;20.482;2023-06-14T12:55:11;99652.88;;;31.22;nan
21153;BME280;10734;44.792;20.482;2023-06-14T12:57:39;99653.59;;;30.92;nan
21153;BME280;10734;44.792;20.482;2023-06-14T13:00:07;99646.47;;;30.78;nan
21153;BME280;10734;44.792;20.482;2023-06-14T13:02:34;99636.94;;;30.60;nan
21153;BME280;10734;44.792;20.482;2023-06-14T13:05:02;99636.25;;;30.40;nan
21153;BME280;10734;44.792;20.482;2023-06-14T13:07:30;99648.25;;;30.02;nan
21153;BME280;10734;44.792;20.482;2023-06-14T13:09:57;99648.44;;;30.07;nan
21153;BME280;10734;44.792;20.482;2023-06-14T13:12:25;99649.22;;;30.21;nan
21153;BME280;10734;44.792;20.482;2023-06-14T13:14:52;99645.63;;;29.76;nan
21153;BME280;10734;44.792;20.482;2023-06-14T13:17:19;99655.44;;;29.72;nan
21153;BME280;10734;44.792;20.482;2023-06-14T13:19:46;99641.38;;;29.73;nan
21153;BME280;10734;44.792;20.482;2023-06-14T13:22:13;99643.06;;;29.74;nan
21153;BME280;10734;44.792;20.482;2023-06-14T13:24:41;99641.00;;;29.50;nan
21153;BME280;10734;44.792;20.482;2023-06-14T13:27:09;99647.09;;;29.20;nan
21153;BME280;10734;44.792;20.482;2023-06-14T13:29:37;99649.66;;;29.15;nan
21153;BME280;10734;44.792;20.482;2023-06-14T13:32:04;99646.78;;;29.41;nan
21153;BME280;10734;44.792;20.482;2023-06-14T13:34:31;99644.00;;;29.48;nan
21153;BME280;10734;44.792;20.482;2023-06-14T13:36:59;99653.44;;;29.27;nan
21153;BME280;10734;44.792;20.482;2023-06-14T13:39:26;99639.19;;;28.97;nan
21153;BME280;10734;44.792;20.482;2023-06-14T13:41:56;99652.84;;;29.18;nan
21153;BME280;10734;44.792;20.482;2023-06-14T13:44:22;99645.94;;;29.41;nan
21153;BME280;10734;44.792;20.482;2023-06-14T13:46:49;99647.38;;;29.57;nan
21153;BME280;10734;44.792;20.482;2023-06-14T13:49:17;99638.09;;;29.24;nan
21153;BME280;10734;44.792;20.482;2023-06-14T13:51:43;99656.25;;;29.20;nan
21153;BME280;10734;44.792;20.482;2023-06-14T13:54:13;99655.88;;;29.68;nan
21153;BME280;10734;44.792;20.482;2023-06-14T13:56:41;99648.84;;;30.11;nan
21153;BME280;10734;44.792;20.482;2023-06-14T13:59:08;99652.66;;;30.16;nan
21153;BME280;10734;44.792;20.482;2023-06-14T14:01:36;99645.00;;;30.69;nan
21153;BME280;10734;44.792;20.482;2023-06-14T14:04:03;99647.94;;;30.74;nan
21153;BME280;10734;44.792;20.482;2023-06-14T14:06:33;99649.84;;;30.80;nan
21153;BME280;10734;44.792;20.482;2023-06-14T14:09:00;99649.19;;;30.84;nan
21153;BME280;10734;44.792;20.482;2023-06-14T14:11:27;99648.38;;;30.77;nan
21153;BME280;10734;44.792;20.482;2023-06-14T14:13:57;99646.22;;;30.79;nan
21153;BME280;10734;44.792;20.482;2023-06-14T14:16:24;99641.72;;;30.53;nan
21153;BME280;10734;44.792;20.482;2023-06-14T14:18:53;99651.44;;;30.44;nan
21153;BME280;10734;44.792;20.482;2023-06-14T14:21:20;99635.81;;;30.43;nan
21153;BME280;10734;44.792;20.482;2023-06-14T14:23:47;99645.19;;;30.17;nan
21153;BME280;10734;44.792;20.482;2023-06-14T14:26:14;99642.34;;;30.30;nan
21153;BME280;10734;44.792;20.482;2023-06-14T14:28:42;99646.03;;;30.49;nan
21153;BME280;10734;44.792;20.482;2023-06-14T14:31:08;99646.88;;;30.50;nan
21153;BME280;10734;44.792;20.482;2023-06-14T14:33:39;99655.19;;;30.25;nan
21153;BME280;10734;44.792;20.482;2023-06-14T14:36:06;99641.91;;;29.88;nan
21153;BME280;10734;44.792;20.482;2023-06-14T14:38:34;99648.97;;;29.91;nan
21153;BME280;10734;44.792;20.482;2023-06-14T14:41:02;99649.00;;;29.84;nan
21153;BME280;10734;44.792;20.482;2023-06-14T14:43:29;99649.81;;;29.91;nan
21153;BME280;10734;44.792;20.482;2023-06-14T14:45:57;99653.69;;;29.84;nan
21153;BME280;10734;44.792;20.482;2023-06-14T14:48:25;99639.22;;;29.75;nan
21153;BME280;10734;44.792;20.482;2023-06-14T14:50:52;99642.28;;;29.54;nan
21153;BME280;10734;44.792;20.482;2023-06-14T14:53:23;99652.22;;;28.96;nan
21153;BME280;10734;44.792;20.482;2023-06-14T14:55:50;99652.47;;;28.75;nan
21153;BME280;10734;44.792;20.482;2023-06-14T14:58:17;99650.97;;;28.52;nan
21153;BME280;10734;44.792;20.482;2023-06-14T15:00:46;99646.88;;;28.28;nan
21153;BME280;10734;44.792;20.482;2023-06-14T15:03:14;99648.59;;;28.23;nan
21153;BME280;10734;44.792;20.482;2023-06-14T15:05:41;99649.16;;;27.98;nan
21153;BME280;10734;44.792;20.482;2023-06-14T15:08:08;99654.56;;;27.65;nan
21153;BME280;10734;44.792;20.482;2023-06-14T15:10:39;99650.53;;;27.26;nan
21153;BME280;10734;44.792;20.482;2023-06-14T15:13:09;99640.94;;;26.87;nan
21153;BME280;10734;44.792;20.482;2023-06-14T15:15:36;99650.63;;;26.77;nan
21153;BME280;10734;44.792;20.482;2023-06-14T15:18:04;99642.03;;;26.65;nan
21153;BME280;10734;44.792;20.482;2023-06-14T15:20:31;99644.63;;;26.73;nan
21153;BME280;10734;44.792;20.482;2023-06-14T15:22:58;99635.84;;;26.41;nan
21153;BME280;10734;44.792;20.482;2023-06-14T15:25:34;99640.72;;;26.18;nan
21153;BME280;10734;44.792;20.482;2023-06-14T15:28:01;99644.19;;;26.05;nan
21153;BME280;10734;44.792;20.482;2023-06-14T15:30:35;99646.03;;;25.98;nan
21153;BME280;10734;44.792;20.482;2023-06-14T15:33:02;99645.34;;;25.89;nan
21153;BME280;10734;44.792;20.482;2023-06-14T15:35:29;99635.56;;;25.72;nan
21153;BME280;10734;44.792;20.482;2023-06-14T15:37:56;99638.03;;;25.67;nan
21153;BME280;10734;44.792;20.482;2023-06-14T15:40:23;99636.94;;;25.46;nan
21153;BME280;10734;44.792;20.482;2023-06-14T15:42:51;99630.56;;;25.46;nan
21153;BME280;10734;44.792;20.482;2023-06-14T15:45:18;99637.31;;;25.43;nan
21153;BME280;10734;44.792;20.482;2023-06-14T15:47:44;99641.16;;;25.28;nan
21153;BME280;10734;44.792;20.482;2023-06-14T15:50:14;99636.56;;;25.05;nan
21153;BME280;10734;44.792;20.482;2023-06-14T15:52:42;99648.44;;;24.91;nan
21153;BME280;10734;44.792;20.482;2023-06-14T15:55:11;99652.56;;;24.72;nan
21153;BME280;10734;44.792;20.482;2023-06-14T15:57:42;99649.91;;;24.64;nan
21153;BME280;10734;44.792;20.482;2023-06-14T16:00:14;99652.72;;;24.55;nan
21153;BME280;10734;44.792;20.482;2023-06-14T16:02:52;99650.13;;;24.39;nan
21153;BME280;10734;44.792;20.482;2023-06-14T16:05:23;99654.91;;;24.22;nan
21153;BME280;10734;44.792;20.482;2023-06-14T16:07:58;99650.50;;;24.13;nan
21153;BME280;10734;44.792;20.482;2023-06-14T16:10:26;99662.34;;;24.14;nan
21153;BME280;10734;44.792;20.482;2023-06-14T16:13:00;99660.66;;;24.13;nan
21153;BME280;10734;44.792;20.482;2023-06-14T16:15:31;99661.38;;;24.06;nan
21153;BME280;10734;44.792;20.482;2023-06-14T16:18:05;99662.41;;;24.05;nan
21153;BME280;10734;44.792;20.482;2023-06-14T16:20:35;99657.56;;;24.07;nan
21153;BME280;10734;44.792;20.482;2023-06-14T16:23:07;99659.41;;;23.92;nan
21153;BME280;10734;44.792;20.482;2023-06-14T16:25:37;99665.56;;;23.94;nan
21153;BME280;10734;44.792;20.482;2023-06-14T16:28:07;99659.94;;;23.88;nan
21153;BME280;10734;44.792;20.482;2023-06-14T16:30:34;99654.13;;;23.82;nan
21153;BME280;10734;44.792;20.482;2023-06-14T16:33:02;99659.94;;;23.88;nan
21153;BME280;10734;44.792;20.482;2023-06-14T16:35:31;99659.09;;;23.87;nan
21153;BME280;10734;44.792;20.482;2023-06-14T16:38:01;99664.88;;;23.69;nan
21153;BME280;10734;44.792;20.482;2023-06-14T16:40:29;99661.66;;;23.57;nan
21153;BME280;10734;44.792;20.482;2023-06-14T16:42:55;99662.22;;;23.45;nan
21153;BME280;10734;44.792;20.482;2023-06-14T18:28:54;99716.13;;;21.40;nan
21153;BME280;10734;44.792;20.482;2023-06-14T18:36:15;99730.94;;;21.29;nan
21153;BME280;10734;44.792;20.482;2023-06-14T18:38:42;99742.41;;;21.24;nan
21153;BME280;10734;44.792;20.482;2023-06-14T18:41:10;99737.97;;;21.23;nan
21153;BME280;10734;44.792;20.482;2023-06-14T18:43:37;99735.69;;;21.19;nan
21153;BME280;10734;44.792;20.482;2023-06-14T18:46:09;99755.94;;;21.26;nan
21153;BME280;10734;44.792;20.482;2023-06-14T18:48:36;99732.28;;;21.17;nan
21153;BME280;10734;44.792;20.482;2023-06-14T18:51:03;99731.03;;;21.11;nan
21153;BME280;10734;44.792;20.482;2023-06-14T18:53:30;99740.41;;;21.09;nan
21153;BME280;10734;44.792;20.482;2023-06-14T18:55:57;99769.22;;;21.13;nan
21153;BME280;10734;44.792;20.482;2023-06-14T19:00:53;99758.72;;;21.08;nan
21153;BME280;10734;44.792;20.482;2023-06-14T19:03:20;99748.63;;;21.09;nan
21153;BME280;10734;44.792;20.482;2023-06-14T19:05:48;99759.91;;;21.06;nan
21153;BME280;10734;44.792;20.482;2023-06-14T19:08:15;99774.94;;;21.01;nan
21153;BME280;10734;44.792;20.482;2023-06-14T19:10:43;99763.44;;;20.98;nan
21153;BME280;10734;44.792;20.482;2023-06-14T19:13:09;99786.22;;;20.98;nan
21153;BME280;10734;44.792;20.482;2023-06-14T19:15:37;99794.63;;;21.05;nan
21153;BME280;10734;44.792;20.482;2023-06-14T19:18:05;99774.94;;;21.01;nan
21153;BME280;10734;44.792;20.482;2023-06-14T19:20:33;99787.06;;;20.99;nan
21153;BME280;10734;44.792;20.482;2023-06-14T19:22:59;99782.47;;;20.99;nan
21153;BME280;10734;44.792;20.482;2023-06-14T19:25:28;99794.59;;;20.97;nan
21153;BME280;10734;44.792;20.482;2023-06-14T19:27:58;99810.00;;;20.98;nan
21153;BME280;10734;44.792;20.482;2023-06-14T19:30:26;99793.03;;;20.94;nan
21153;BME280;10734;44.792;20.482;2023-06-14T19:32:55;99810.00;;;20.98;nan
21153;BME280;10734;44.792;20.482;2023-06-14T19:37:55;99806.41;;;20.97;nan
21153;BME280;10734;44.792;20.482;2023-06-14T19:40:22;99802.63;;;20.98;nan
21153;BME280;10734;44.792;20.482;2023-06-14T19:42:48;99813.25;;;21.01;nan
21153;BME280;10734;44.792;20.482;2023-06-14T19:45:16;99798.00;;;20.99;nan
21153;BME280;10734;44.792;20.482;2023-06-14T19:47:44;99795.44;;;20.97;nan
21153;BME280;10734;44.792;20.482;2023-06-14T19:50:11;99803.47;;;20.99;nan
21153;BME280;10734;44.792;20.482;2023-06-14T19:52:39;99825.78;;;21.04;nan
21153;BME280;10734;44.792;20.482;2023-06-14T19:55:06;99796.16;;;20.99;nan
21153;BME280;10734;44.792;20.482;2023-06-14T19:57:33;99799.22;;;20.96;nan